sensor_id;sensor_type;location;lat;lon;timestamp;temperature;humidity
7512;DHT22;9999;48.780;9.146;2022-09-03T00:01:04;17.00;99.90
7512;DHT22;9999;48.780;9.146;2022-09-03T00:03:36;17.00;99.90
7512;DHT22;9999;48.780;9.146;2022-09-03T00:06:10;17.00;99.90
7512;DHT22;9999;48.780;9.146;2022-09-03T00:08:42;17.10;99.90
7512;DHT22;9999;48.780;9.146;2022-09-03T00:11:13;17.20;99.90
7512;DHT22;9999;48.780;9.146;2022-09-03T00:13:44;17.20;99.90
7512;DHT22;9999;48.780;9.146;2022-09-03T00:16:15;17.30;99.90
7512;DHT22;9999;48.780;9.146;2022-09-03T00:18:46;17.30;99.90
7512;DHT22;9999;48.780;9.146;2022-09-03T00:21:19;17.30;99.90
7512;DHT22;9999;48.780;9.146;2022-09-03T00:23:49;17.30;99.90
7512;DHT22;9999;48.780;9.146;2022-09-03T00:26:21;17.40;99.90
7512;DHT22;9999;48.780;9.146;2022-09-03T00:28:55;17.40;99.90
7512;DHT22;9999;48.780;9.146;2022-09-03T00:31:27;17.40;99.90
7512;DHT22;9999;48.780;9.146;2022-09-03T00:33:58;17.40;99.90
7512;DHT22;9999;48.780;9.146;2022-09-03T00:36:33;17.30;99.90
7512;DHT22;9999;48.780;9.146;2022-09-03T00:39:01;17.40;99.90
7512;DHT22;9999;48.780;9.146;2022-09-03T00:41:34;17.40;99.90
7512;DHT22;9999;48.780;9.146;2022-09-03T00:44:32;17.40;99.90
7512;DHT22;9999;48.780;9.146;2022-09-03T00:47:09;17.40;99.90
7512;DHT22;9999;48.780;9.146;2022-09-03T00:49:46;17.40;99.90
7512;DHT22;9999;48.780;9.146;2022-09-03T00:52:28;17.40;99.90
7512;DHT22;9999;48.780;9.146;2022-09-03T00:55:06;17.40;99.90
7512;DHT22;9999;48.780;9.146;2022-09-03T00:57:45;17.40;99.90
7512;DHT22;9999;48.780;9.146;2022-09-03T01:00:19;17.40;99.90
7512;DHT22;9999;48.780;9.146;2022-09-03T01:02:56;17.50;99.90
7512;DHT22;9999;48.780;9.146;2022-09-03T01:05:40;17.40;99.90
7512;DHT22;9999;48.780;9.146;2022-09-03T01:08:19;17.50;99.90
7512;DHT22;9999;48.780;9.146;2022-09-03T01:10:56;17.50;99.90
7512;DHT22;9999;48.780;9.146;2022-09-03T01:13:31;17.40;99.90
7512;DHT22;9999;48.780;9.146;2022-09-03T01:16:09;17.40;99.90
7512;DHT22;9999;48.780;9.146;2022-09-03T01:18:45;17.40;99.90
7512;DHT22;9999;48.780;9.146;2022-09-03T01:21:47;17.40;99.90
7512;DHT22;9999;48.780;9.146;2022-09-03T01:24:43;17.30;99.90
7512;DHT22;9999;48.780;9.146;2022-09-03T01:27:31;17.40;99.90
7512;DHT22;9999;48.780;9.146;2022-09-03T01:30:06;17.40;99.90
7512;DHT22;9999;48.780;9.146;2022-09-03T01:32:40;17.40;99.90
7512;DHT22;9999;48.780;9.146;2022-09-03T01:35:15;17.40;99.90
7512;DHT22;9999;48.780;9.146;2022-09-03T01:37:54;17.40;99.90
7512;DHT22;9999;48.780;9.146;2022-09-03T01:40:30;17.40;99.90
7512;DHT22;9999;48.780;9.146;2022-09-03T01:43:16;17.40;99.90
7512;DHT22;9999;48.780;9.146;2022-09-03T01:45:52;17.40;99.90
7512;DHT22;9999;48.780;9.146;2022-09-03T01:48:31;17.40;99.90
7512;DHT22;9999;48.780;9.146;2022-09-03T01:51:08;17.40;99.90
7512;DHT22;9999;48.780;9.146;2022-09-03T02:00:02;17.40;99.90
7512;DHT22;9999;48.780;9.146;2022-09-03T02:02:39;17.40;99.90
7512;DHT22;9999;48.780;9.146;2022-09-03T02:05:09;17.40;99.90
7512;DHT22;9999;48.780;9.146;2022-09-03T02:07:40;17.40;99.90
7512;DHT22;9999;48.780;9.146;2022-09-03T02:10:10;17.40;99.90
7512;DHT22;9999;48.780;9.146;2022-09-03T02:12:38;17.40;99.90
7512;DHT22;9999;48.780;9.146;2022-09-03T02:15:12;17.40;99.90
7512;DHT22;9999;48.780;9.146;2022-09-03T02:17:41;17.40;99.90
7512;DHT22;9999;48.780;9.146;2022-09-03T02:20:11;17.40;99.90
7512;DHT22;9999;48.780;9.146;2022-09-03T02:22:42;17.40;99.90
7512;DHT22;9999;48.780;9.146;2022-09-03T02:25:10;17.40;99.90
7512;DHT22;9999;48.780;9.146;2022-09-03T02:27:37;17.30;99.90
7512;DHT22;9999;48.780;9.146;2022-09-03T02:30:05;17.30;99.90
7512;DHT22;9999;48.780;9.146;2022-09-03T02:32:32;17.30;99.90
7512;DHT22;9999;48.780;9.146;2022-09-03T02:35:00;17.30;99.90
7512;DHT22;9999;48.780;9.146;2022-09-03T02:37:27;17.20;99.90
7512;DHT22;9999;48.780;9.146;2022-09-03T02:39:53;17.20;99.90
7512;DHT22;9999;48.780;9.146;2022-09-03T02:42:21;17.20;99.90
7512;DHT22;9999;48.780;9.146;2022-09-03T02:44:51;17.20;99.90
7512;DHT22;9999;48.780;9.146;2022-09-03T02:47:18;17.20;99.90
7512;DHT22;9999;48.780;9.146;2022-09-03T02:49:46;17.20;99.90
7512;DHT22;9999;48.780;9.146;2022-09-03T02:52:15;17.10;99.90
7512;DHT22;9999;48.780;9.146;2022-09-03T02:54:42;17.10;99.90
7512;DHT22;9999;48.780;9.146;2022-09-03T02:57:12;17.10;99.90
7512;DHT22;9999;48.780;9.146;2022-09-03T02:59:39;17.10;99.90
7512;DHT22;9999;48.780;9.146;2022-09-03T03:02:08;17.00;99.90
7512;DHT22;9999;48.780;9.146;2022-09-03T03:04:35;16.90;99.90
7512;DHT22;9999;48.780;9.146;2022-09-03T03:07:02;17.00;99.90
7512;DHT22;9999;48.780;9.146;2022-09-03T03:09:31;17.00;99.90
7512;DHT22;9999;48.780;9.146;2022-09-03T03:11:57;16.90;99.90
7512;DHT22;9999;48.780;9.146;2022-09-03T03:14:24;16.90;99.90
7512;DHT22;9999;48.780;9.146;2022-09-03T03:16:51;16.90;99.90
7512;DHT22;9999;48.780;9.146;2022-09-03T03:19:18;16.80;99.90
7512;DHT22;9999;48.780;9.146;2022-09-03T03:21:45;16.90;99.90
7512;DHT22;9999;48.780;9.146;2022-09-03T03:24:11;16.80;99.90
7512;DHT22;9999;48.780;9.146;2022-09-03T03:26:39;16.80;99.90
7512;DHT22;9999;48.780;9.146;2022-09-03T03:29:06;16.80;99.90
7512;DHT22;9999;48.780;9.146;2022-09-03T03:31:33;16.80;99.90
7512;DHT22;9999;48.780;9.146;2022-09-03T03:34:02;16.70;99.90
7512;DHT22;9999;48.780;9.146;2022-09-03T03:36:31;16.70;99.90
7512;DHT22;9999;48.780;9.146;2022-09-03T03:38:59;16.60;99.90
7512;DHT22;9999;48.780;9.146;2022-09-03T03:41:28;16.60;99.90
7512;DHT22;9999;48.780;9.146;2022-09-03T03:43:58;16.60;99.90
7512;DHT22;9999;48.780;9.146;2022-09-03T03:46:29;16.60;99.90
7512;DHT22;9999;48.780;9.146;2022-09-03T03:48:56;16.60;99.90
7512;DHT22;9999;48.780;9.146;2022-09-03T03:51:24;16.60;99.90
7512;DHT22;9999;48.780;9.146;2022-09-03T03:53:53;16.60;99.90
7512;DHT22;9999;48.780;9.146;2022-09-03T03:56:20;16.60;99.90
7512;DHT22;9999;48.780;9.146;2022-09-03T03:58:47;16.60;99.90
7512;DHT22;9999;48.780;9.146;2022-09-03T04:01:17;16.60;99.90
7512;DHT22;9999;48.780;9.146;2022-09-03T04:03:44;16.60;99.90
7512;DHT22;9999;48.780;9.146;2022-09-03T04:06:13;16.60;99.90
7512;DHT22;9999;48.780;9.146;2022-09-03T04:08:41;16.60;99.90
7512;DHT22;9999;48.780;9.146;2022-09-03T04:11:09;16.50;99.90
7512;DHT22;9999;48.780;9.146;2022-09-03T04:13:38;16.40;99.90
7512;DHT22;9999;48.780;9.146;2022-09-03T04:16:07;16.40;99.90
7512;DHT22;9999;48.780;9.146;2022-09-03T04:18:36;16.50;99.90
7512;DHT22;9999;48.780;9.146;2022-09-03T04:21:05;16.50;99.90
7512;DHT22;9999;48.780;9.146;2022-09-03T04:23:33;16.50;99.90
7512;DHT22;9999;48.780;9.146;2022-09-03T04:26:00;16.60;99.90
7512;DHT22;9999;48.780;9.146;2022-09-03T04:28:27;16.50;99.90
7512;DHT22;9999;48.780;9.146;2022-09-03T04:30:54;16.50;99.90
7512;DHT22;9999;48.780;9.146;2022-09-03T04:33:25;16.50;99.90
7512;DHT22;9999;48.780;9.146;2022-09-03T04:36:01;16.60;99.90
7512;DHT22;9999;48.780;9.146;2022-09-03T04:38:28;16.60;99.90
7512;DHT22;9999;48.780;9.146;2022-09-03T04:40:57;16.60;99.90
7512;DHT22;9999;48.780;9.146;2022-09-03T04:43:25;16.60;99.90
7512;DHT22;9999;48.780;9.146;2022-09-03T04:45:55;16.60;99.90
7512;DHT22;9999;48.780;9.146;2022-09-03T04:48:23;16.60;99.90
7512;DHT22;9999;48.780;9.146;2022-09-03T04:50:49;16.50;99.90
7512;DHT22;9999;48.780;9.146;2022-09-03T04:53:18;16.50;99.90
7512;DHT22;9999;48.780;9.146;2022-09-03T04:55:44;16.50;99.90
7512;DHT22;9999;48.780;9.146;2022-09-03T04:58:11;16.50;99.90
7512;DHT22;9999;48.780;9.146;2022-09-03T05:00:38;16.50;99.90
7512;DHT22;9999;48.780;9.146;2022-09-03T05:03:05;16.50;99.90
7512;DHT22;9999;48.780;9.146;2022-09-03T05:05:32;16.60;99.90
7512;DHT22;9999;48.780;9.146;2022-09-03T05:07:59;16.60;99.90
7512;DHT22;9999;48.780;9.146;2022-09-03T05:10:28;16.60;99.90
7512;DHT22;9999;48.780;9.146;2022-09-03T05:12:59;16.60;99.90
7512;DHT22;9999;48.780;9.146;2022-09-03T05:15:27;16.60;99.90
7512;DHT22;9999;48.780;9.146;2022-09-03T05:17:57;16.70;99.90
7512;DHT22;9999;48.780;9.146;2022-09-03T05:20:26;16.70;99.90
7512;DHT22;9999;48.780;9.146;2022-09-03T05:22:55;16.70;99.90
7512;DHT22;9999;48.780;9.146;2022-09-03T05:25:22;16.70;99.90
7512;DHT22;9999;48.780;9.146;2022-09-03T05:27:50;16.80;99.90
7512;DHT22;9999;48.780;9.146;2022-09-03T05:30:18;16.80;99.90
7512;DHT22;9999;48.780;9.146;2022-09-03T05:32:47;16.90;99.90
7512;DHT22;9999;48.780;9.146;2022-09-03T05:35:14;16.80;99.90
7512;DHT22;9999;48.780;9.146;2022-09-03T05:37:40;16.90;99.90
7512;DHT22;9999;48.780;9.146;2022-09-03T05:40:08;16.90;99.90
7512;DHT22;9999;48.780;9.146;2022-09-03T05:42:36;16.90;99.90
7512;DHT22;9999;48.780;9.146;2022-09-03T05:45:06;16.90;99.90
7512;DHT22;9999;48.780;9.146;2022-09-03T05:47:36;16.90;99.90
7512;DHT22;9999;48.780;9.146;2022-09-03T05:50:05;17.00;99.90
7512;DHT22;9999;48.780;9.146;2022-09-03T05:52:33;17.00;99.90
7512;DHT22;9999;48.780;9.146;2022-09-03T05:55:00;17.00;99.90
7512;DHT22;9999;48.780;9.146;2022-09-03T05:57:27;17.00;99.90
7512;DHT22;9999;48.780;9.146;2022-09-03T05:59:54;17.00;99.90
7512;DHT22;9999;48.780;9.146;2022-09-03T06:02:22;17.00;99.90
7512;DHT22;9999;48.780;9.146;2022-09-03T06:04:49;17.00;99.90
7512;DHT22;9999;48.780;9.146;2022-09-03T06:07:16;17.00;99.90
7512;DHT22;9999;48.780;9.146;2022-09-03T06:09:42;17.00;99.90
7512;DHT22;9999;48.780;9.146;2022-09-03T06:12:09;17.10;99.90
7512;DHT22;9999;48.780;9.146;2022-09-03T06:14:36;17.10;99.90
7512;DHT22;9999;48.780;9.146;2022-09-03T06:17:03;17.10;99.90
7512;DHT22;9999;48.780;9.146;2022-09-03T06:19:31;17.20;99.90
7512;DHT22;9999;48.780;9.146;2022-09-03T06:21:57;17.10;99.90
7512;DHT22;9999;48.780;9.146;2022-09-03T06:24:24;17.20;99.90
7512;DHT22;9999;48.780;9.146;2022-09-03T06:26:54;17.20;99.90
7512;DHT22;9999;48.780;9.146;2022-09-03T06:29:21;17.30;99.90
7512;DHT22;9999;48.780;9.146;2022-09-03T06:31:48;17.30;99.90
7512;DHT22;9999;48.780;9.146;2022-09-03T06:34:15;17.30;99.90
7512;DHT22;9999;48.780;9.146;2022-09-03T06:36:44;17.30;99.90
7512;DHT22;9999;48.780;9.146;2022-09-03T06:39:11;17.30;99.90
7512;DHT22;9999;48.780;9.146;2022-09-03T06:41:38;17.40;99.90
7512;DHT22;9999;48.780;9.146;2022-09-03T06:44:06;17.40;99.90
7512;DHT22;9999;48.780;9.146;2022-09-03T06:46:37;17.50;99.90
7512;DHT22;9999;48.780;9.146;2022-09-03T06:49:04;17.50;99.90
7512;DHT22;9999;48.780;9.146;2022-09-03T06:51:33;17.60;99.90
7512;DHT22;9999;48.780;9.146;2022-09-03T06:54:03;17.60;99.90
7512;DHT22;9999;48.780;9.146;2022-09-03T06:56:30;17.70;99.90
7512;DHT22;9999;48.780;9.146;2022-09-03T06:59:02;17.70;99.90
7512;DHT22;9999;48.780;9.146;2022-09-03T07:01:31;17.70;99.90
7512;DHT22;9999;48.780;9.146;2022-09-03T07:04:00;17.70;99.90
7512;DHT22;9999;48.780;9.146;2022-09-03T07:06:28;17.70;99.90
7512;DHT22;9999;48.780;9.146;2022-09-03T07:08:55;17.70;99.90
7512;DHT22;9999;48.780;9.146;2022-09-03T07:11:27;17.80;99.90
7512;DHT22;9999;48.780;9.146;2022-09-03T07:13:56;17.80;99.90
7512;DHT22;9999;48.780;9.146;2022-09-03T07:16:25;17.80;99.90
7512;DHT22;9999;48.780;9.146;2022-09-03T07:18:52;17.80;99.90
7512;DHT22;9999;48.780;9.146;2022-09-03T07:21:21;17.90;99.90
7512;DHT22;9999;48.780;9.146;2022-09-03T07:23:50;18.00;99.90
7512;DHT22;9999;48.780;9.146;2022-09-03T07:26:19;17.90;99.90
7512;DHT22;9999;48.780;9.146;2022-09-03T07:28:47;17.90;99.90
7512;DHT22;9999;48.780;9.146;2022-09-03T07:31:16;17.90;99.90
7512;DHT22;9999;48.780;9.146;2022-09-03T07:33:44;17.90;99.90
7512;DHT22;9999;48.780;9.146;2022-09-03T07:36:12;18.00;99.90
7512;DHT22;9999;48.780;9.146;2022-09-03T07:38:41;18.10;99.90
7512;DHT22;9999;48.780;9.146;2022-09-03T07:41:10;18.20;99.90
7512;DHT22;9999;48.780;9.146;2022-09-03T07:43:39;18.30;99.90
7512;DHT22;9999;48.780;9.146;2022-09-03T07:46:09;18.40;99.90
7512;DHT22;9999;48.780;9.146;2022-09-03T07:48:38;18.50;99.90
7512;DHT22;9999;48.780;9.146;2022-09-03T07:51:05;18.70;99.90
7512;DHT22;9999;48.780;9.146;2022-09-03T07:53:32;18.80;99.90
7512;DHT22;9999;48.780;9.146;2022-09-03T07:56:04;18.70;99.90
7512;DHT22;9999;48.780;9.146;2022-09-03T07:58:32;18.90;99.90
7512;DHT22;9999;48.780;9.146;2022-09-03T08:01:03;19.00;99.90
7512;DHT22;9999;48.780;9.146;2022-09-03T08:03:32;19.10;99.90
7512;DHT22;9999;48.780;9.146;2022-09-03T08:06:00;19.10;99.90
7512;DHT22;9999;48.780;9.146;2022-09-03T08:08:27;19.00;99.90
7512;DHT22;9999;48.780;9.146;2022-09-03T08:10:54;19.10;99.90
7512;DHT22;9999;48.780;9.146;2022-09-03T08:13:22;19.20;99.90
7512;DHT22;9999;48.780;9.146;2022-09-03T08:15:53;19.30;99.90
7512;DHT22;9999;48.780;9.146;2022-09-03T08:18:20;19.50;99.90
7512;DHT22;9999;48.780;9.146;2022-09-03T08:20:48;19.50;99.90
7512;DHT22;9999;48.780;9.146;2022-09-03T08:23:15;19.70;99.90
7512;DHT22;9999;48.780;9.146;2022-09-03T08:25:42;19.80;99.90
7512;DHT22;9999;48.780;9.146;2022-09-03T08:28:09;20.00;99.90
7512;DHT22;9999;48.780;9.146;2022-09-03T08:30:36;20.20;99.90
7512;DHT22;9999;48.780;9.146;2022-09-03T08:33:02;20.40;99.90
7512;DHT22;9999;48.780;9.146;2022-09-03T08:35:31;20.60;99.90
7512;DHT22;9999;48.780;9.146;2022-09-03T08:38:00;20.70;99.90
7512;DHT22;9999;48.780;9.146;2022-09-03T08:40:30;20.70;99.90
7512;DHT22;9999;48.780;9.146;2022-09-03T08:43:07;20.70;99.90
7512;DHT22;9999;48.780;9.146;2022-09-03T08:45:36;21.00;99.90
7512;DHT22;9999;48.780;9.146;2022-09-03T08:48:06;21.00;99.90
7512;DHT22;9999;48.780;9.146;2022-09-03T08:50:38;21.10;99.90
7512;DHT22;9999;48.780;9.146;2022-09-03T08:53:11;21.10;99.90
7512;DHT22;9999;48.780;9.146;2022-09-03T08:55:42;21.20;99.90
7512;DHT22;9999;48.780;9.146;2022-09-03T08:58:14;21.40;99.90
7512;DHT22;9999;48.780;9.146;2022-09-03T09:00:47;21.40;99.90
7512;DHT22;9999;48.780;9.146;2022-09-03T09:03:32;21.40;99.90
7512;DHT22;9999;48.780;9.146;2022-09-03T09:06:09;21.40;99.90
7512;DHT22;9999;48.780;9.146;2022-09-03T09:08:47;21.20;99.90
7512;DHT22;9999;48.780;9.146;2022-09-03T09:11:27;21.20;99.90
7512;DHT22;9999;48.780;9.146;2022-09-03T09:14:00;21.00;99.90
7512;DHT22;9999;48.780;9.146;2022-09-03T09:16:37;21.10;99.90
7512;DHT22;9999;48.780;9.146;2022-09-03T09:19:15;21.10;99.90
7512;DHT22;9999;48.780;9.146;2022-09-03T09:21:49;21.00;99.90
7512;DHT22;9999;48.780;9.146;2022-09-03T09:24:22;21.00;99.90
7512;DHT22;9999;48.780;9.146;2022-09-03T09:26:54;21.10;99.90
7512;DHT22;9999;48.780;9.146;2022-09-03T09:29:21;21.20;99.90
7512;DHT22;9999;48.780;9.146;2022-09-03T09:31:48;21.50;99.90
7512;DHT22;9999;48.780;9.146;2022-09-03T09:34:15;21.80;99.90
7512;DHT22;9999;48.780;9.146;2022-09-03T09:36:45;22.00;99.90
7512;DHT22;9999;48.780;9.146;2022-09-03T09:39:12;22.00;99.90
7512;DHT22;9999;48.780;9.146;2022-09-03T09:41:42;21.90;99.90
7512;DHT22;9999;48.780;9.146;2022-09-03T09:44:19;21.80;99.90
7512;DHT22;9999;48.780;9.146;2022-09-03T09:46:46;21.90;99.90
7512;DHT22;9999;48.780;9.146;2022-09-03T09:49:29;22.10;99.90
7512;DHT22;9999;48.780;9.146;2022-09-03T09:52:01;22.30;99.90
7512;DHT22;9999;48.780;9.146;2022-09-03T09:54:28;22.30;99.90
7512;DHT22;9999;48.780;9.146;2022-09-03T09:57:01;22.00;99.90
7512;DHT22;9999;48.780;9.146;2022-09-03T09:59:28;22.00;99.90
7512;DHT22;9999;48.780;9.146;2022-09-03T10:02:07;22.00;99.90
7512;DHT22;9999;48.780;9.146;2022-09-03T10:04:35;22.00;99.90
7512;DHT22;9999;48.780;9.146;2022-09-03T10:07:04;21.90;99.90
7512;DHT22;9999;48.780;9.146;2022-09-03T10:09:32;22.10;99.90
7512;DHT22;9999;48.780;9.146;2022-09-03T10:12:08;22.00;99.90
7512;DHT22;9999;48.780;9.146;2022-09-03T10:14:43;22.00;99.90
7512;DHT22;9999;48.780;9.146;2022-09-03T10:17:17;22.00;99.90
7512;DHT22;9999;48.780;9.146;2022-09-03T10:19:51;21.90;99.90
7512;DHT22;9999;48.780;9.146;2022-09-03T10:22:39;22.00;99.90
7512;DHT22;9999;48.780;9.146;2022-09-03T10:25:13;22.00;99.90
7512;DHT22;9999;48.780;9.146;2022-09-03T10:27:42;22.00;99.90
7512;DHT22;9999;48.780;9.146;2022-09-03T10:30:11;21.90;99.90
7512;DHT22;9999;48.780;9.146;2022-09-03T10:32:46;22.00;99.90
7512;DHT22;9999;48.780;9.146;2022-09-03T10:35:22;22.10;99.90
7512;DHT22;9999;48.780;9.146;2022-09-03T10:37:57;22.10;99.90
7512;DHT22;9999;48.780;9.146;2022-09-03T10:40:30;22.40;99.90
7512;DHT22;9999;48.780;9.146;2022-09-03T10:43:16;22.70;99.90
7512;DHT22;9999;48.780;9.146;2022-09-03T10:45:54;22.80;99.90
7512;DHT22;9999;48.780;9.146;2022-09-03T10:48:47;22.90;99.90
7512;DHT22;9999;48.780;9.146;2022-09-03T10:51:18;22.90;99.90
7512;DHT22;9999;48.780;9.146;2022-09-03T10:54:16;22.80;99.90
7512;DHT22;9999;48.780;9.146;2022-09-03T10:56:49;22.80;99.90
7512;DHT22;9999;48.780;9.146;2022-09-03T10:59:34;22.90;99.90
7512;DHT22;9999;48.780;9.146;2022-09-03T11:02:15;22.90;99.90
7512;DHT22;9999;48.780;9.146;2022-09-03T11:04:52;23.00;99.90
7512;DHT22;9999;48.780;9.146;2022-09-03T11:07:24;23.10;99.90
7512;DHT22;9999;48.780;9.146;2022-09-03T11:09:56;23.00;99.90
7512;DHT22;9999;48.780;9.146;2022-09-03T11:12:31;22.80;99.90
7512;DHT22;9999;48.780;9.146;2022-09-03T11:15:04;22.70;99.90
7512;DHT22;9999;48.780;9.146;2022-09-03T11:17:36;22.70;99.90
7512;DHT22;9999;48.780;9.146;2022-09-03T11:20:10;22.70;99.90
7512;DHT22;9999;48.780;9.146;2022-09-03T11:22:40;22.60;99.90
7512;DHT22;9999;48.780;9.146;2022-09-03T11:25:10;22.60;99.90
7512;DHT22;9999;48.780;9.146;2022-09-03T11:27:51;22.60;99.90
7512;DHT22;9999;48.780;9.146;2022-09-03T11:30:24;22.50;99.90
7512;DHT22;9999;48.780;9.146;2022-09-03T11:32:57;22.50;99.90
7512;DHT22;9999;48.780;9.146;2022-09-03T11:35:27;22.60;99.90
7512;DHT22;9999;48.780;9.146;2022-09-03T11:37:58;22.50;99.90
7512;DHT22;9999;48.780;9.146;2022-09-03T11:40:32;22.60;99.90
7512;DHT22;9999;48.780;9.146;2022-09-03T11:43:11;22.50;99.90
7512;DHT22;9999;48.780;9.146;2022-09-03T11:45:40;22.30;99.90
7512;DHT22;9999;48.780;9.146;2022-09-03T11:48:18;22.20;99.90
7512;DHT22;9999;48.780;9.146;2022-09-03T11:50:54;22.30;99.90
7512;DHT22;9999;48.780;9.146;2022-09-03T11:53:24;22.10;99.90
7512;DHT22;9999;48.780;9.146;2022-09-03T11:55:54;22.20;99.90
7512;DHT22;9999;48.780;9.146;2022-09-03T11:58:24;22.20;99.90
7512;DHT22;9999;48.780;9.146;2022-09-03T12:00:54;22.10;99.90
7512;DHT22;9999;48.780;9.146;2022-09-03T12:03:24;22.00;99.90
7512;DHT22;9999;48.780;9.146;2022-09-03T12:06:09;21.80;99.90
7512;DHT22;9999;48.780;9.146;2022-09-03T12:09:05;21.90;99.90
7512;DHT22;9999;48.780;9.146;2022-09-03T12:11:46;21.90;99.90
7512;DHT22;9999;48.780;9.146;2022-09-03T12:14:21;21.80;99.90
7512;DHT22;9999;48.780;9.146;2022-09-03T12:19:49;21.80;99.90
7512;DHT22;9999;48.780;9.146;2022-09-03T12:22:19;21.60;99.90
7512;DHT22;9999;48.780;9.146;2022-09-03T12:24:46;21.40;99.90
7512;DHT22;9999;48.780;9.146;2022-09-03T12:27:16;21.40;99.90
7512;DHT22;9999;48.780;9.146;2022-09-03T12:29:53;21.30;99.90
7512;DHT22;9999;48.780;9.146;2022-09-03T12:32:25;21.10;99.90
7512;DHT22;9999;48.780;9.146;2022-09-03T12:34:52;20.90;99.90
7512;DHT22;9999;48.780;9.146;2022-09-03T12:37:21;20.70;99.90
7512;DHT22;9999;48.780;9.146;2022-09-03T12:39:52;20.50;99.90
7512;DHT22;9999;48.780;9.146;2022-09-03T12:42:23;20.00;99.90
7512;DHT22;9999;48.780;9.146;2022-09-03T12:44:52;19.70;99.90
7512;DHT22;9999;48.780;9.146;2022-09-03T12:47:20;19.30;99.90
7512;DHT22;9999;48.780;9.146;2022-09-03T12:49:50;19.00;99.90
7512;DHT22;9999;48.780;9.146;2022-09-03T12:52:22;18.90;99.90
7512;DHT22;9999;48.780;9.146;2022-09-03T12:54:53;18.90;99.90
7512;DHT22;9999;48.780;9.146;2022-09-03T12:57:25;18.70;99.90
7512;DHT22;9999;48.780;9.146;2022-09-03T12:59:57;18.60;99.90
7512;DHT22;9999;48.780;9.146;2022-09-03T13:02:29;18.50;99.90
7512;DHT22;9999;48.780;9.146;2022-09-03T13:05:02;18.20;99.90
7512;DHT22;9999;48.780;9.146;2022-09-03T13:07:32;18.20;99.90
7512;DHT22;9999;48.780;9.146;2022-09-03T13:10:04;18.30;99.90
7512;DHT22;9999;48.780;9.146;2022-09-03T13:12:33;18.30;99.90
7512;DHT22;9999;48.780;9.146;2022-09-03T13:15:09;18.30;99.90
7512;DHT22;9999;48.780;9.146;2022-09-03T13:18:05;18.40;99.90
7512;DHT22;9999;48.780;9.146;2022-09-03T13:20:41;18.30;99.90
7512;DHT22;9999;48.780;9.146;2022-09-03T13:23:31;18.50;99.90
7512;DHT22;9999;48.780;9.146;2022-09-03T13:26:08;18.50;99.90
7512;DHT22;9999;48.780;9.146;2022-09-03T13:28:50;18.60;99.90
7512;DHT22;9999;48.780;9.146;2022-09-03T13:31:28;18.70;99.90
7512;DHT22;9999;48.780;9.146;2022-09-03T13:34:00;18.60;99.90
7512;DHT22;9999;48.780;9.146;2022-09-03T13:36:33;18.70;99.90
7512;DHT22;9999;48.780;9.146;2022-09-03T13:39:05;19.00;99.90
7512;DHT22;9999;48.780;9.146;2022-09-03T13:41:36;19.20;99.90
7512;DHT22;9999;48.780;9.146;2022-09-03T13:44:09;19.50;99.90
7512;DHT22;9999;48.780;9.146;2022-09-03T13:46:44;19.60;99.90
7512;DHT22;9999;48.780;9.146;2022-09-03T13:49:20;19.50;99.90
7512;DHT22;9999;48.780;9.146;2022-09-03T13:52:17;19.50;99.90
7512;DHT22;9999;48.780;9.146;2022-09-03T13:54:52;19.30;99.90
7512;DHT22;9999;48.780;9.146;2022-09-03T13:57:27;19.30;99.90
7512;DHT22;9999;48.780;9.146;2022-09-03T13:59:58;19.00;99.90
7512;DHT22;9999;48.780;9.146;2022-09-03T14:02:47;18.80;99.90
7512;DHT22;9999;48.780;9.146;2022-09-03T14:05:24;19.10;99.90
7512;DHT22;9999;48.780;9.146;2022-09-03T14:08:04;19.10;99.90
7512;DHT22;9999;48.780;9.146;2022-09-03T14:10:49;19.40;99.90
7512;DHT22;9999;48.780;9.146;2022-09-03T14:13:23;19.70;99.90
7512;DHT22;9999;48.780;9.146;2022-09-03T14:15:59;19.80;99.90
7512;DHT22;9999;48.780;9.146;2022-09-03T14:18:36;19.60;99.90
7512;DHT22;9999;48.780;9.146;2022-09-03T14:21:08;19.70;99.90
7512;DHT22;9999;48.780;9.146;2022-09-03T14:23:43;19.80;99.90
7512;DHT22;9999;48.780;9.146;2022-09-03T14:26:16;20.00;99.90
7512;DHT22;9999;48.780;9.146;2022-09-03T14:28:45;20.00;99.90
7512;DHT22;9999;48.780;9.146;2022-09-03T14:31:20;19.90;99.90
7512;DHT22;9999;48.780;9.146;2022-09-03T14:33:55;19.70;99.90
7512;DHT22;9999;48.780;9.146;2022-09-03T14:36:30;19.60;99.90
7512;DHT22;9999;48.780;9.146;2022-09-03T14:39:24;19.80;99.90
7512;DHT22;9999;48.780;9.146;2022-09-03T14:42:18;19.90;99.90
7512;DHT22;9999;48.780;9.146;2022-09-03T14:45:07;19.90;99.90
7512;DHT22;9999;48.780;9.146;2022-09-03T14:47:49;19.90;99.90
7512;DHT22;9999;48.780;9.146;2022-09-03T14:50:35;19.90;99.90
7512;DHT22;9999;48.780;9.146;2022-09-03T14:53:23;20.00;99.90
7512;DHT22;9999;48.780;9.146;2022-09-03T14:56:08;20.20;99.90
7512;DHT22;9999;48.780;9.146;2022-09-03T14:58:55;20.30;99.90
7512;DHT22;9999;48.780;9.146;2022-09-03T15:01:28;20.40;99.90
7512;DHT22;9999;48.780;9.146;2022-09-03T15:04:13;20.40;99.90
7512;DHT22;9999;48.780;9.146;2022-09-03T15:06:54;20.40;99.90
7512;DHT22;9999;48.780;9.146;2022-09-03T15:09:29;20.50;99.90
7512;DHT22;9999;48.780;9.146;2022-09-03T15:12:04;20.70;99.90
7512;DHT22;9999;48.780;9.146;2022-09-03T15:14:37;20.80;99.90
7512;DHT22;9999;48.780;9.146;2022-09-03T15:17:19;20.70;99.90
7512;DHT22;9999;48.780;9.146;2022-09-03T15:19:56;20.80;99.90
7512;DHT22;9999;48.780;9.146;2022-09-03T15:22:36;20.90;99.90
7512;DHT22;9999;48.780;9.146;2022-09-03T15:25:14;20.90;99.90
7512;DHT22;9999;48.780;9.146;2022-09-03T15:28:04;20.90;99.90
7512;DHT22;9999;48.780;9.146;2022-09-03T15:30:35;20.70;99.90
7512;DHT22;9999;48.780;9.146;2022-09-03T15:33:12;20.60;99.90
7512;DHT22;9999;48.780;9.146;2022-09-03T15:35:56;20.80;99.90
7512;DHT22;9999;48.780;9.146;2022-09-03T15:38:36;21.00;99.90
7512;DHT22;9999;48.780;9.146;2022-09-03T15:41:09;21.20;99.90
7512;DHT22;9999;48.780;9.146;2022-09-03T15:43:40;21.20;99.90
7512;DHT22;9999;48.780;9.146;2022-09-03T15:46:10;21.10;99.90
7512;DHT22;9999;48.780;9.146;2022-09-03T15:48:46;21.00;99.90
7512;DHT22;9999;48.780;9.146;2022-09-03T15:51:19;20.90;99.90
7512;DHT22;9999;48.780;9.146;2022-09-03T15:53:52;20.70;99.90
7512;DHT22;9999;48.780;9.146;2022-09-03T15:56:27;20.70;99.90
7512;DHT22;9999;48.780;9.146;2022-09-03T15:59:00;20.60;99.90
7512;DHT22;9999;48.780;9.146;2022-09-03T16:01:34;20.60;99.90
7512;DHT22;9999;48.780;9.146;2022-09-03T16:04:10;20.60;99.90
7512;DHT22;9999;48.780;9.146;2022-09-03T16:06:49;20.40;99.90
7512;DHT22;9999;48.780;9.146;2022-09-03T16:09:26;20.30;99.90
7512;DHT22;9999;48.780;9.146;2022-09-03T16:12:00;20.40;99.90
7512;DHT22;9999;48.780;9.146;2022-09-03T16:14:38;20.50;99.90
7512;DHT22;9999;48.780;9.146;2022-09-03T16:17:17;20.40;99.90
7512;DHT22;9999;48.780;9.146;2022-09-03T16:19:53;20.40;99.90
7512;DHT22;9999;48.780;9.146;2022-09-03T16:22:26;20.40;99.90
7512;DHT22;9999;48.780;9.146;2022-09-03T16:24:58;20.50;99.90
7512;DHT22;9999;48.780;9.146;2022-09-03T16:27:29;20.50;99.90
7512;DHT22;9999;48.780;9.146;2022-09-03T16:30:02;20.50;99.90
7512;DHT22;9999;48.780;9.146;2022-09-03T16:32:50;20.30;99.90
7512;DHT22;9999;48.780;9.146;2022-09-03T16:35:30;20.40;99.90
7512;DHT22;9999;48.780;9.146;2022-09-03T16:38:25;20.40;99.90
7512;DHT22;9999;48.780;9.146;2022-09-03T16:40:56;20.40;99.90
7512;DHT22;9999;48.780;9.146;2022-09-03T16:43:34;20.40;99.90
7512;DHT22;9999;48.780;9.146;2022-09-03T16:46:19;20.40;99.90